sensor_id;sensor_type;location;lat;lon;timestamp;pressure;altitude;pressure_sealevel;temperature;humidity
78121;BME280;67585;44.802;10.332;2024-01-30T00:02:22;103166.53;;;2.53;79.64
78121;BME280;67585;44.802;10.332;2024-01-30T00:04:47;103159.94;;;2.67;78.91
78121;BME280;67585;44.802;10.332;2024-01-30T00:07:13;103153.38;;;2.32;78.72
78121;BME280;67585;44.802;10.332;2024-01-30T00:09:38;103141.22;;;2.01;80.13
78121;BME280;67585;44.802;10.332;2024-01-30T00:12:07;103139.13;;;2.04;80.03
78121;BME280;67585;44.802;10.332;2024-01-30T00:14:32;103147.66;;;2.08;80.06
78121;BME280;67585;44.802;10.332;2024-01-30T00:16:58;103159.81;;;2.30;80.02
78121;BME280;67585;44.802;10.332;2024-01-30T00:19:23;103163.31;;;2.30;79.06
78121;BME280;67585;44.802;10.332;2024-01-30T00:21:48;103155.50;;;2.00;79.53
78121;BME280;67585;44.802;10.332;2024-01-30T00:24:14;103161.63;;;1.71;80.72
78121;BME280;67585;44.802;10.332;2024-01-30T00:26:39;103168.34;;;1.85;80.29
78121;BME280;67585;44.802;10.332;2024-01-30T00:29:04;103163.72;;;1.27;80.61
78121;BME280;67585;44.802;10.332;2024-01-30T00:31:30;103170.78;;;1.47;81.25
78121;BME280;67585;44.802;10.332;2024-01-30T00:33:55;103142.50;;;1.27;80.86
78121;BME280;67585;44.802;10.332;2024-01-30T00:36:21;103175.47;;;1.84;81.33
78121;BME280;67585;44.802;10.332;2024-01-30T00:38:46;103141.78;;;1.25;80.91
78121;BME280;67585;44.802;10.332;2024-01-30T00:41:12;103172.47;;;1.48;80.87
78121;BME280;67585;44.802;10.332;2024-01-30T00:43:38;103167.44;;;1.55;81.57
78121;BME280;67585;44.802;10.332;2024-01-30T00:46:03;103153.19;;;1.56;79.96
78121;BME280;67585;44.802;10.332;2024-01-30T00:48:29;103156.56;;;1.18;80.68
78121;BME280;67585;44.802;10.332;2024-01-30T00:50:54;103182.75;;;1.32;79.87
78121;BME280;67585;44.802;10.332;2024-01-30T00:53:20;103163.94;;;1.55;79.64
78121;BME280;67585;44.802;10.332;2024-01-30T00:55:45;103178.19;;;1.44;80.87
78121;BME280;67585;44.802;10.332;2024-01-30T00:58:11;103178.28;;;1.33;81.08
78121;BME280;67585;44.802;10.332;2024-01-30T01:00:36;103167.44;;;1.55;79.85
78121;BME280;67585;44.802;10.332;2024-01-30T01:03:02;103159.78;;;1.62;79.38
78121;BME280;67585;44.802;10.332;2024-01-30T01:05:28;103185.75;;;1.48;79.97
78121;BME280;67585;44.802;10.332;2024-01-30T01:07:53;103173.47;;;1.17;79.59
78121;BME280;67585;44.802;10.332;2024-01-30T01:10:19;103186.38;;;1.00;79.73
78121;BME280;67585;44.802;10.332;2024-01-30T01:12:45;103191.81;;;0.99;79.93
78121;BME280;67585;44.802;10.332;2024-01-30T01:15:10;103198.03;;;0.46;81.10
78121;BME280;67585;44.802;10.332;2024-01-30T01:17:36;103200.59;;;0.99;81.28
78121;BME280;67585;44.802;10.332;2024-01-30T01:20:03;103174.50;;;0.32;81.55
78121;BME280;67585;44.802;10.332;2024-01-30T01:22:30;103206.13;;;0.45;81.97
78121;BME280;67585;44.802;10.332;2024-01-30T01:24:56;103207.44;;;0.71;81.36
78121;BME280;67585;44.802;10.332;2024-01-30T01:27:21;103203.34;;;0.46;81.95
78121;BME280;67585;44.802;10.332;2024-01-30T01:29:46;103200.84;;;0.66;81.86
78121;BME280;67585;44.802;10.332;2024-01-30T01:32:12;103206.34;;;0.74;81.83
78121;BME280;67585;44.802;10.332;2024-01-30T01:34:37;103197.47;;;0.63;81.94
78121;BME280;67585;44.802;10.332;2024-01-30T01:37:03;103197.06;;;0.47;82.28
78121;BME280;67585;44.802;10.332;2024-01-30T01:39:28;103203.75;;;0.62;82.90
78121;BME280;67585;44.802;10.332;2024-01-30T01:41:53;103195.78;;;0.62;82.55
78121;BME280;67585;44.802;10.332;2024-01-30T01:44:19;103198.19;;;0.66;82.52
78121;BME280;67585;44.802;10.332;2024-01-30T01:46:44;103181.75;;;0.93;82.11
78121;BME280;67585;44.802;10.332;2024-01-30T01:49:10;103199.34;;;0.73;82.38
78121;BME280;67585;44.802;10.332;2024-01-30T01:51:36;103196.13;;;0.69;82.21
78121;BME280;67585;44.802;10.332;2024-01-30T01:54:04;103198.06;;;0.88;81.33
78121;BME280;67585;44.802;10.332;2024-01-30T01:56:33;103189.69;;;0.93;81.20
78121;BME280;67585;44.802;10.332;2024-01-30T01:59:07;103196.56;;;0.74;82.36
78121;BME280;67585;44.802;10.332;2024-01-30T02:01:34;103183.75;;;0.79;82.07
78121;BME280;67585;44.802;10.332;2024-01-30T02:04:00;103186.00;;;0.84;81.21
78121;BME280;67585;44.802;10.332;2024-01-30T02:06:26;103188.72;;;0.94;81.82
78121;BME280;67585;44.802;10.332;2024-01-30T02:08:52;103154.56;;;0.79;81.61
78121;BME280;67585;44.802;10.332;2024-01-30T02:11:18;103151.47;;;0.74;80.87
78121;BME280;67585;44.802;10.332;2024-01-30T02:13:43;103177.38;;;0.92;80.76
78121;BME280;67585;44.802;10.332;2024-01-30T02:16:09;103144.34;;;0.75;81.20
78121;BME280;67585;44.802;10.332;2024-01-30T02:18:35;103154.13;;;0.74;81.18
78121;BME280;67585;44.802;10.332;2024-01-30T02:21:04;103176.59;;;1.01;81.76
78121;BME280;67585;44.802;10.332;2024-01-30T02:23:30;103169.69;;;0.89;81.25
78121;BME280;67585;44.802;10.332;2024-01-30T02:25:56;103141.97;;;0.72;81.30
78121;BME280;67585;44.802;10.332;2024-01-30T02:28:21;103176.22;;;0.84;81.59
78121;BME280;67585;44.802;10.332;2024-01-30T02:30:47;103156.38;;;0.79;80.60
78121;BME280;67585;44.802;10.332;2024-01-30T02:33:12;103174.78;;;1.01;81.40
78121;BME280;67585;44.802;10.332;2024-01-30T02:35:38;103149.41;;;0.78;80.43
78121;BME280;67585;44.802;10.332;2024-01-30T02:38:04;103159.66;;;0.92;80.79
78121;BME280;67585;44.802;10.332;2024-01-30T02:40:29;103129.63;;;0.92;79.97
78121;BME280;67585;44.802;10.332;2024-01-30T02:42:55;103172.38;;;1.19;79.71
78121;BME280;67585;44.802;10.332;2024-01-30T02:45:21;103142.84;;;0.82;79.42
78121;BME280;67585;44.802;10.332;2024-01-30T02:47:46;103141.91;;;0.41;80.23
78121;BME280;67585;44.802;10.332;2024-01-30T02:50:12;103160.25;;;0.96;80.23
78121;BME280;67585;44.802;10.332;2024-01-30T02:52:37;103131.81;;;0.35;80.89
78121;BME280;67585;44.802;10.332;2024-01-30T02:55:03;103130.38;;;0.73;80.69
78121;BME280;67585;44.802;10.332;2024-01-30T02:57:28;103125.22;;;0.71;79.68
78121;BME280;67585;44.802;10.332;2024-01-30T02:59:54;103157.31;;;0.99;80.50
78121;BME280;67585;44.802;10.332;2024-01-30T03:02:19;103151.63;;;0.82;79.67
78121;BME280;67585;44.802;10.332;2024-01-30T03:04:45;103143.72;;;0.40;79.45
78121;BME280;67585;44.802;10.332;2024-01-30T03:07:10;103145.19;;;0.12;79.51
78121;BME280;67585;44.802;10.332;2024-01-30T03:09:36;103137.94;;;0.14;80.72
78121;BME280;67585;44.802;10.332;2024-01-30T03:12:03;103168.47;;;0.30;82.14
78121;BME280;67585;44.802;10.332;2024-01-30T03:14:30;103172.72;;;0.00;81.97
78121;BME280;67585;44.802;10.332;2024-01-30T03:16:56;103174.75;;;0.29;82.84
78121;BME280;67585;44.802;10.332;2024-01-30T03:19:21;103168.34;;;0.31;81.72
78121;BME280;67585;44.802;10.332;2024-01-30T03:21:46;103167.00;;;0.58;80.97
78121;BME280;67585;44.802;10.332;2024-01-30T03:24:12;103143.38;;;0.34;80.06
78121;BME280;67585;44.802;10.332;2024-01-30T03:26:37;103154.78;;;0.46;81.41
78121;BME280;67585;44.802;10.332;2024-01-30T03:29:02;103143.31;;;0.24;80.46
78121;BME280;67585;44.802;10.332;2024-01-30T03:31:28;103142.50;;;-0.09;81.40
78121;BME280;67585;44.802;10.332;2024-01-30T03:33:53;103171.38;;;0.27;81.40
78121;BME280;67585;44.802;10.332;2024-01-30T03:36:19;103141.31;;;0.16;81.05
78121;BME280;67585;44.802;10.332;2024-01-30T03:38:45;103130.75;;;-0.27;81.62
78121;BME280;67585;44.802;10.332;2024-01-30T03:41:10;103141.38;;;0.26;81.08
78121;BME280;67585;44.802;10.332;2024-01-30T03:43:36;103157.25;;;0.37;81.91
78121;BME280;67585;44.802;10.332;2024-01-30T03:46:02;103152.72;;;0.49;80.90
78121;BME280;67585;44.802;10.332;2024-01-30T03:48:29;103155.88;;;0.43;80.70
78121;BME280;67585;44.802;10.332;2024-01-30T03:50:54;103129.72;;;-0.04;81.34
78121;BME280;67585;44.802;10.332;2024-01-30T03:53:20;103164.53;;;-0.08;81.64
78121;BME280;67585;44.802;10.332;2024-01-30T03:55:45;103158.19;;;0.15;81.18
78121;BME280;67585;44.802;10.332;2024-01-30T03:58:11;103135.53;;;-0.65;82.26
78121;BME280;67585;44.802;10.332;2024-01-30T04:00:36;103166.72;;;-0.25;82.18
78121;BME280;67585;44.802;10.332;2024-01-30T04:03:02;103146.78;;;-0.40;82.65
78121;BME280;67585;44.802;10.332;2024-01-30T04:05:27;103135.28;;;-0.07;82.47
78121;BME280;67585;44.802;10.332;2024-01-30T04:07:53;103142.63;;;-0.10;82.57
78121;BME280;67585;44.802;10.332;2024-01-30T04:10:18;103125.00;;;-0.32;81.50
78121;BME280;67585;44.802;10.332;2024-01-30T04:12:43;103125.47;;;0.05;81.12
78121;BME280;67585;44.802;10.332;2024-01-30T04:15:09;103141.19;;;0.18;81.03
78121;BME280;67585;44.802;10.332;2024-01-30T04:17:34;103106.38;;;-0.10;81.09
78121;BME280;67585;44.802;10.332;2024-01-30T04:20:00;103165.22;;;0.05;80.34
78121;BME280;67585;44.802;10.332;2024-01-30T04:22:25;103128.53;;;-0.43;81.18
78121;BME280;67585;44.802;10.332;2024-01-30T04:24:50;103132.38;;;-0.47;80.78
78121;BME280;67585;44.802;10.332;2024-01-30T04:27:16;103153.13;;;-0.20;81.51
78121;BME280;67585;44.802;10.332;2024-01-30T04:29:41;103141.41;;;-0.50;80.98
78121;BME280;67585;44.802;10.332;2024-01-30T04:32:06;103159.94;;;-0.61;81.87
78121;BME280;67585;44.802;10.332;2024-01-30T04:34:32;103162.56;;;-0.50;80.96
78121;BME280;67585;44.802;10.332;2024-01-30T04:36:57;103160.19;;;-0.64;80.73
78121;BME280;67585;44.802;10.332;2024-01-30T04:39:23;103152.19;;;-0.30;81.52
78121;BME280;67585;44.802;10.332;2024-01-30T04:41:48;103129.44;;;-0.22;81.36
78121;BME280;67585;44.802;10.332;2024-01-30T04:44:14;103120.59;;;-0.11;79.57
78121;BME280;67585;44.802;10.332;2024-01-30T04:46:39;103123.16;;;-0.20;79.80
78121;BME280;67585;44.802;10.332;2024-01-30T04:49:05;103146.53;;;0.07;79.16
78121;BME280;67585;44.802;10.332;2024-01-30T04:51:32;103147.56;;;-0.60;80.58
78121;BME280;67585;44.802;10.332;2024-01-30T04:53:58;103136.25;;;-0.62;80.40
78121;BME280;67585;44.802;10.332;2024-01-30T04:56:24;103154.94;;;-0.32;81.21
78121;BME280;67585;44.802;10.332;2024-01-30T04:58:49;103128.69;;;-0.24;79.51
78121;BME280;67585;44.802;10.332;2024-01-30T05:01:15;103138.78;;;-0.17;80.83
78121;BME280;67585;44.802;10.332;2024-01-30T05:03:41;103128.66;;;-0.12;79.30
78121;BME280;67585;44.802;10.332;2024-01-30T05:06:06;103156.13;;;-0.25;80.92
78121;BME280;67585;44.802;10.332;2024-01-30T05:08:32;103143.34;;;-0.19;80.25
78121;BME280;67585;44.802;10.332;2024-01-30T05:11:00;103135.47;;;-0.42;81.21
78121;BME280;67585;44.802;10.332;2024-01-30T05:13:25;103158.63;;;-0.67;82.21
78121;BME280;67585;44.802;10.332;2024-01-30T05:15:51;103149.53;;;-0.30;80.66
78121;BME280;67585;44.802;10.332;2024-01-30T05:18:16;103162.03;;;-0.21;80.58
78121;BME280;67585;44.802;10.332;2024-01-30T05:20:42;103159.75;;;-0.14;81.30
78121;BME280;67585;44.802;10.332;2024-01-30T05:23:07;103155.34;;;-0.36;81.36
78121;BME280;67585;44.802;10.332;2024-01-30T05:25:33;103141.75;;;-0.43;81.74
78121;BME280;67585;44.802;10.332;2024-01-30T05:27:58;103148.66;;;-0.19;81.96
78121;BME280;67585;44.802;10.332;2024-01-30T05:30:24;103133.75;;;-0.32;81.21
78121;BME280;67585;44.802;10.332;2024-01-30T05:32:49;103152.81;;;-0.38;82.14
78121;BME280;67585;44.802;10.332;2024-01-30T05:35:15;103167.28;;;-0.65;81.35
78121;BME280;67585;44.802;10.332;2024-01-30T05:37:40;103169.06;;;-0.54;82.41
78121;BME280;67585;44.802;10.332;2024-01-30T05:40:06;103165.31;;;-0.29;82.74
78121;BME280;67585;44.802;10.332;2024-01-30T05:42:32;103148.44;;;-0.28;82.50
78121;BME280;67585;44.802;10.332;2024-01-30T05:44:57;103164.94;;;-0.24;81.69
78121;BME280;67585;44.802;10.332;2024-01-30T05:47:23;103126.63;;;-0.63;81.80
78121;BME280;67585;44.802;10.332;2024-01-30T05:49:48;103170.75;;;-0.75;83.30
78121;BME280;67585;44.802;10.332;2024-01-30T05:52:13;103161.66;;;-0.94;82.72
78121;BME280;67585;44.802;10.332;2024-01-30T05:54:40;103168.47;;;-0.46;83.44
78121;BME280;67585;44.802;10.332;2024-01-30T05:57:05;103139.47;;;-0.48;82.96
78121;BME280;67585;44.802;10.332;2024-01-30T05:59:31;103142.47;;;-0.41;82.41
78121;BME280;67585;44.802;10.332;2024-01-30T06:01:57;103162.72;;;-0.62;82.96
78121;BME280;67585;44.802;10.332;2024-01-30T06:04:23;103158.00;;;-0.59;82.79
78121;BME280;67585;44.802;10.332;2024-01-30T06:06:48;103143.56;;;-0.66;82.55
78121;BME280;67585;44.802;10.332;2024-01-30T06:09:14;103167.75;;;-0.48;82.97
78121;BME280;67585;44.802;10.332;2024-01-30T06:11:39;103150.41;;;-0.41;83.23
78121;BME280;67585;44.802;10.332;2024-01-30T06:14:05;103141.53;;;-0.74;82.47
78121;BME280;67585;44.802;10.332;2024-01-30T06:16:30;103151.53;;;-0.89;82.97
78121;BME280;67585;44.802;10.332;2024-01-30T06:18:56;103179.66;;;-0.54;82.70
78121;BME280;67585;44.802;10.332;2024-01-30T06:21:21;103158.63;;;-0.78;82.46
78121;BME280;67585;44.802;10.332;2024-01-30T06:23:47;103169.44;;;-0.81;84.24
78121;BME280;67585;44.802;10.332;2024-01-30T06:26:12;103186.28;;;-0.48;82.96
78121;BME280;67585;44.802;10.332;2024-01-30T06:28:37;103135.28;;;-0.61;83.60
78121;BME280;67585;44.802;10.332;2024-01-30T06:31:03;103177.59;;;-0.39;83.00
78121;BME280;67585;44.802;10.332;2024-01-30T06:33:28;103192.47;;;-0.15;83.15
78121;BME280;67585;44.802;10.332;2024-01-30T06:35:54;103110.78;;;-0.75;81.91
78121;BME280;67585;44.802;10.332;2024-01-30T06:38:19;103192.28;;;-0.24;81.51
78121;BME280;67585;44.802;10.332;2024-01-30T06:40:44;103195.44;;;-0.41;82.20
78121;BME280;67585;44.802;10.332;2024-01-30T06:43:10;103187.50;;;-0.41;81.77
78121;BME280;67585;44.802;10.332;2024-01-30T06:45:36;103129.88;;;4.65;88.48
78121;BME280;67585;44.802;10.332;2024-01-30T06:48:02;103129.47;;;4.78;84.77
78121;BME280;67585;44.802;10.332;2024-01-30T06:50:28;103191.59;;;5.57;76.54
78121;BME280;67585;44.802;10.332;2024-01-30T06:52:53;103157.56;;;4.90;72.17
78121;BME280;67585;44.802;10.332;2024-01-30T06:55:18;103168.63;;;4.69;69.36
78121;BME280;67585;44.802;10.332;2024-01-30T06:57:44;103162.69;;;4.58;67.88
78121;BME280;67585;44.802;10.332;2024-01-30T07:00:10;103188.72;;;4.82;67.88
78121;BME280;67585;44.802;10.332;2024-01-30T07:02:35;103162.34;;;4.35;66.47
78121;BME280;67585;44.802;10.332;2024-01-30T07:05:01;103179.44;;;4.68;66.54
78121;BME280;67585;44.802;10.332;2024-01-30T07:07:27;103198.25;;;4.40;66.68
78121;BME280;67585;44.802;10.332;2024-01-30T07:09:54;103182.50;;;2.14;67.33
78121;BME280;67585;44.802;10.332;2024-01-30T07:12:22;103149.66;;;0.75;72.30
78121;BME280;67585;44.802;10.332;2024-01-30T07:14:48;103203.09;;;0.49;74.26
78121;BME280;67585;44.802;10.332;2024-01-30T07:17:13;103178.19;;;0.19;77.51
78121;BME280;67585;44.802;10.332;2024-01-30T07:19:39;103149.81;;;-0.01;78.26
78121;BME280;67585;44.802;10.332;2024-01-30T07:22:04;103159.78;;;0.07;79.00
78121;BME280;67585;44.802;10.332;2024-01-30T07:24:29;103200.63;;;0.04;79.45
78121;BME280;67585;44.802;10.332;2024-01-30T07:26:55;103166.59;;;-0.12;79.47
78121;BME280;67585;44.802;10.332;2024-01-30T07:29:20;103195.63;;;0.22;80.82
78121;BME280;67585;44.802;10.332;2024-01-30T07:31:47;103183.13;;;0.13;80.58
78121;BME280;67585;44.802;10.332;2024-01-30T07:34:12;103180.66;;;0.00;79.60
78121;BME280;67585;44.802;10.332;2024-01-30T07:36:37;103206.63;;;0.06;80.49
78121;BME280;67585;44.802;10.332;2024-01-30T07:39:03;103167.34;;;-0.21;80.07
78121;BME280;67585;44.802;10.332;2024-01-30T07:41:28;103168.25;;;0.01;80.02
78121;BME280;67585;44.802;10.332;2024-01-30T07:43:53;103196.47;;;0.23;79.77
78121;BME280;67585;44.802;10.332;2024-01-30T07:46:19;103183.06;;;0.24;79.74
78121;BME280;67585;44.802;10.332;2024-01-30T07:48:44;103194.81;;;0.42;79.81
78121;BME280;67585;44.802;10.332;2024-01-30T07:51:09;103164.41;;;0.26;79.21
78121;BME280;67585;44.802;10.332;2024-01-30T07:53:35;103228.28;;;0.76;78.78
78121;BME280;67585;44.802;10.332;2024-01-30T07:56:01;103196.31;;;0.24;78.90
78121;BME280;67585;44.802;10.332;2024-01-30T07:58:26;103213.09;;;0.46;79.52
78121;BME280;67585;44.802;10.332;2024-01-30T08:00:54;103204.81;;;1.02;78.89
78121;BME280;67585;44.802;10.332;2024-01-30T08:03:22;103224.31;;;0.70;78.98
78121;BME280;67585;44.802;10.332;2024-01-30T08:05:47;103175.28;;;0.64;78.51
78121;BME280;67585;44.802;10.332;2024-01-30T08:08:12;103209.50;;;0.68;77.73
78121;BME280;67585;44.802;10.332;2024-01-30T08:10:38;103186.59;;;0.67;78.41
78121;BME280;67585;44.802;10.332;2024-01-30T08:13:03;103185.56;;;0.58;78.97
78121;BME280;67585;44.802;10.332;2024-01-30T08:15:28;103189.47;;;1.05;77.41
78121;BME280;67585;44.802;10.332;2024-01-30T08:17:54;103222.41;;;1.64;77.12
78121;BME280;67585;44.802;10.332;2024-01-30T08:20:23;103219.28;;;1.49;75.55
78121;BME280;67585;44.802;10.332;2024-01-30T08:22:49;103160.88;;;1.59;75.26
78121;BME280;67585;44.802;10.332;2024-01-30T08:25:14;103208.50;;;2.11;74.33
78121;BME280;67585;44.802;10.332;2024-01-30T08:27:39;103218.50;;;2.38;72.98
78121;BME280;67585;44.802;10.332;2024-01-30T08:30:06;103216.50;;;2.40;72.58
78121;BME280;67585;44.802;10.332;2024-01-30T08:32:32;103181.28;;;2.95;71.52
78121;BME280;67585;44.802;10.332;2024-01-30T08:34:58;103217.34;;;3.27;70.78
78121;BME280;67585;44.802;10.332;2024-01-30T08:37:23;103163.06;;;2.90;69.84
78121;BME280;67585;44.802;10.332;2024-01-30T08:39:49;103219.56;;;3.31;69.44
78121;BME280;67585;44.802;10.332;2024-01-30T08:42:14;103229.44;;;3.49;68.43
78121;BME280;67585;44.802;10.332;2024-01-30T08:44:39;103200.78;;;3.33;68.88
78121;BME280;67585;44.802;10.332;2024-01-30T08:47:05;103225.63;;;3.24;68.52
78121;BME280;67585;44.802;10.332;2024-01-30T08:49:31;103209.03;;;3.85;68.18
78121;BME280;67585;44.802;10.332;2024-01-30T08:51:56;103222.50;;;3.93;68.40
78121;BME280;67585;44.802;10.332;2024-01-30T08:54:23;103203.72;;;3.85;67.83
78121;BME280;67585;44.802;10.332;2024-01-30T08:56:49;103190.94;;;4.06;67.50
78121;BME280;67585;44.802;10.332;2024-01-30T08:59:14;103077.53;;;3.03;67.82
78121;BME280;67585;44.802;10.332;2024-01-30T09:01:40;103182.84;;;3.80;67.40
78121;BME280;67585;44.802;10.332;2024-01-30T09:04:05;103193.72;;;3.69;67.47
78121;BME280;67585;44.802;10.332;2024-01-30T09:06:31;103213.50;;;4.30;67.27
78121;BME280;67585;44.802;10.332;2024-01-30T09:08:56;103220.56;;;4.57;66.71
78121;BME280;67585;44.802;10.332;2024-01-30T09:11:23;103223.94;;;4.23;67.62
78121;BME280;67585;44.802;10.332;2024-01-30T09:13:49;103228.34;;;4.68;66.31
78121;BME280;67585;44.802;10.332;2024-01-30T09:16:14;103235.38;;;4.52;67.57
78121;BME280;67585;44.802;10.332;2024-01-30T09:18:41;103239.88;;;4.51;67.74
78121;BME280;67585;44.802;10.332;2024-01-30T09:21:07;103182.97;;;4.50;67.10
78121;BME280;67585;44.802;10.332;2024-01-30T09:23:32;103227.06;;;5.33;65.45
78121;BME280;67585;44.802;10.332;2024-01-30T09:25:58;103184.56;;;5.13;66.62
78121;BME280;67585;44.802;10.332;2024-01-30T09:28:24;103233.63;;;5.73;64.58
78121;BME280;67585;44.802;10.332;2024-01-30T09:30:49;103228.31;;;5.47;65.14
78121;BME280;67585;44.802;10.332;2024-01-30T09:33:15;103246.78;;;5.32;65.57
78121;BME280;67585;44.802;10.332;2024-01-30T09:35:40;103202.56;;;5.38;64.82
78121;BME280;67585;44.802;10.332;2024-01-30T09:38:06;103240.78;;;5.38;65.83
78121;BME280;67585;44.802;10.332;2024-01-30T09:40:31;103240.69;;;5.48;65.69
78121;BME280;67585;44.802;10.332;2024-01-30T09:42:58;103212.69;;;5.26;66.52
78121;BME280;67585;44.802;10.332;2024-01-30T09:45:26;103252.06;;;5.50;66.22
78121;BME280;67585;44.802;10.332;2024-01-30T09:47:52;103238.25;;;4.76;67.05
78121;BME280;67585;44.802;10.332;2024-01-30T09:50:18;103204.84;;;5.24;67.08
78121;BME280;67585;44.802;10.332;2024-01-30T09:52:44;103244.34;;;5.81;67.40
78121;BME280;67585;44.802;10.332;2024-01-30T09:55:11;103228.94;;;6.42;66.76
78121;BME280;67585;44.802;10.332;2024-01-30T09:57:37;103193.09;;;6.10;65.34
78121;BME280;67585;44.802;10.332;2024-01-30T10:00:06;103208.50;;;6.25;64.66
78121;BME280;67585;44.802;10.332;2024-01-30T10:02:34;103239.63;;;6.83;65.70
78121;BME280;67585;44.802;10.332;2024-01-30T10:05:00;103238.63;;;6.59;64.21
78121;BME280;67585;44.802;10.332;2024-01-30T10:07:26;103229.09;;;6.40;64.34
78121;BME280;67585;44.802;10.332;2024-01-30T10:09:52;103239.31;;;6.78;64.16
78121;BME280;67585;44.802;10.332;2024-01-30T10:12:18;103212.38;;;6.38;64.54
78121;BME280;67585;44.802;10.332;2024-01-30T10:14:43;103242.75;;;7.11;64.44
78121;BME280;67585;44.802;10.332;2024-01-30T10:17:10;103235.97;;;6.68;64.08
78121;BME280;67585;44.802;10.332;2024-01-30T10:19:36;103229.25;;;6.88;63.16
78121;BME280;67585;44.802;10.332;2024-01-30T10:22:02;103241.97;;;6.45;64.12
78121;BME280;67585;44.802;10.332;2024-01-30T10:24:27;103213.84;;;6.33;64.74
78121;BME280;67585;44.802;10.332;2024-01-30T10:26:55;103227.59;;;6.46;64.34
78121;BME280;67585;44.802;10.332;2024-01-30T10:29:20;103228.41;;;6.55;64.09
78121;BME280;67585;44.802;10.332;2024-01-30T10:31:45;103203.31;;;6.23;64.98
78121;BME280;67585;44.802;10.332;2024-01-30T10:34:12;103222.06;;;6.31;65.99
78121;BME280;67585;44.802;10.332;2024-01-30T10:36:41;103197.81;;;6.25;65.34
78121;BME280;67585;44.802;10.332;2024-01-30T10:39:08;103198.47;;;6.76;65.10
78121;BME280;67585;44.802;10.332;2024-01-30T10:41:41;103227.09;;;6.51;65.09
78121;BME280;67585;44.802;10.332;2024-01-30T10:44:09;103193.78;;;6.12;66.12
78121;BME280;67585;44.802;10.332;2024-01-30T10:46:35;103189.78;;;6.33;66.26
78121;BME280;67585;44.802;10.332;2024-01-30T10:49:03;103160.66;;;6.46;66.40
78121;BME280;67585;44.802;10.332;2024-01-30T10:51:31;103154.47;;;6.21;66.00
78121;BME280;67585;44.802;10.332;2024-01-30T10:53:57;103207.78;;;7.04;65.93
78121;BME280;67585;44.802;10.332;2024-01-30T10:56:23;103177.50;;;6.79;65.59
78121;BME280;67585;44.802;10.332;2024-01-30T10:58:50;103195.31;;;7.28;65.55
78121;BME280;67585;44.802;10.332;2024-01-30T11:01:21;103143.44;;;6.49;66.11
78121;BME280;67585;44.802;10.332;2024-01-30T11:03:54;103194.00;;;7.16;65.93
78121;BME280;67585;44.802;10.332;2024-01-30T11:06:24;103189.25;;;7.34;64.26
78121;BME280;67585;44.802;10.332;2024-01-30T11:09:10;103193.41;;;7.45;65.32
78121;BME280;67585;44.802;10.332;2024-01-30T11:11:57;103191.34;;;7.07;66.67
78121;BME280;67585;44.802;10.332;2024-01-30T11:14:26;103137.47;;;6.94;66.45
78121;BME280;67585;44.802;10.332;2024-01-30T11:16:51;103180.38;;;6.78;66.14
78121;BME280;67585;44.802;10.332;2024-01-30T11:19:24;103179.81;;;6.99;67.07
78121;BME280;67585;44.802;10.332;2024-01-30T11:21:52;103172.34;;;6.78;67.25
78121;BME280;67585;44.802;10.332;2024-01-30T11:24:22;103146.44;;;6.54;68.13
78121;BME280;67585;44.802;10.332;2024-01-30T11:26:58;103158.88;;;7.50;66.14
78121;BME280;67585;44.802;10.332;2024-01-30T11:29:29;103158.31;;;7.15;67.40
78121;BME280;67585;44.802;10.332;2024-01-30T11:31:56;103169.06;;;7.15;67.43
78121;BME280;67585;44.802;10.332;2024-01-30T11:34:22;103164.44;;;7.40;67.54
78121;BME280;67585;44.802;10.332;2024-01-30T11:36:55;103156.28;;;7.65;67.59
78121;BME280;67585;44.802;10.332;2024-01-30T11:39:24;103156.22;;;7.42;67.76
78121;BME280;67585;44.802;10.332;2024-01-30T11:41:52;103152.28;;;7.21;67.73
78121;BME280;67585;44.802;10.332;2024-01-30T11:44:21;103155.09;;;6.80;69.42
78121;BME280;67585;44.802;10.332;2024-01-30T11:46:53;103150.28;;;7.23;69.25
78121;BME280;67585;44.802;10.332;2024-01-30T11:49:18;103142.13;;;7.40;70.01
78121;BME280;67585;44.802;10.332;2024-01-30T11:51:47;103100.91;;;7.41;69.17
78121;BME280;67585;44.802;10.332;2024-01-30T11:54:15;103135.81;;;8.10;67.58
78121;BME280;67585;44.802;10.332;2024-01-30T11:56:42;103104.88;;;7.99;68.16
78121;BME280;67585;44.802;10.332;2024-01-30T11:59:08;103139.53;;;7.55;68.22
78121;BME280;67585;44.802;10.332;2024-01-30T12:01:34;103125.28;;;7.85;68.12
78121;BME280;67585;44.802;10.332;2024-01-30T12:03:59;103127.72;;;7.72;68.42
78121;BME280;67585;44.802;10.332;2024-01-30T12:06:25;103054.28;;;8.11;67.41
78121;BME280;67585;44.802;10.332;2024-01-30T12:09:01;103091.66;;;7.75;67.13
78121;BME280;67585;44.802;10.332;2024-01-30T12:11:30;103110.53;;;7.58;68.98
78121;BME280;67585;44.802;10.332;2024-01-30T12:13:56;103080.66;;;7.38;68.64
78121;BME280;67585;44.802;10.332;2024-01-30T12:16:22;103115.31;;;7.71;68.51
78121;BME280;67585;44.802;10.332;2024-01-30T12:18:48;103096.22;;;7.66;68.40
78121;BME280;67585;44.802;10.332;2024-01-30T12:21:16;103106.38;;;7.47;69.13
78121;BME280;67585;44.802;10.332;2024-01-30T12:23:43;103034.66;;;7.49;68.97
78121;BME280;67585;44.802;10.332;2024-01-30T12:26:09;103035.31;;;7.28;68.83
78121;BME280;67585;44.802;10.332;2024-01-30T12:28:35;103044.69;;;7.56;69.56
78121;BME280;67585;44.802;10.332;2024-01-30T12:31:04;103040.94;;;8.03;69.13
78121;BME280;67585;44.802;10.332;2024-01-30T12:33:30;103080.66;;;8.07;68.29
78121;BME280;67585;44.802;10.332;2024-01-30T12:35:57;103073.63;;;8.06;68.28
78121;BME280;67585;44.802;10.332;2024-01-30T12:38:24;103066.81;;;7.96;68.60
78121;BME280;67585;44.802;10.332;2024-01-30T12:40:54;103075.34;;;7.76;69.28
78121;BME280;67585;44.802;10.332;2024-01-30T12:43:20;103070.69;;;7.47;69.69